sensor_id;sensor_type;location;lat;lon;timestamp;pressure;altitude;pressure_sealevel;temperature;humidity
71996;BME280;59862;47.732;7.346;2024-01-30T00:01:40;99509.67;;;6.13;70.74
71996;BME280;59862;47.732;7.346;2024-01-30T00:04:08;99504.48;;;6.09;70.79
71996;BME280;59862;47.732;7.346;2024-01-30T00:06:35;99506.92;;;6.25;70.21
71996;BME280;59862;47.732;7.346;2024-01-30T00:09:03;99511.53;;;6.23;70.18
71996;BME280;59862;47.732;7.346;2024-01-30T00:11:31;99506.20;;;6.17;70.50
71996;BME280;59862;47.732;7.346;2024-01-30T00:13:58;99512.77;;;6.17;70.46
71996;BME280;59862;47.732;7.346;2024-01-30T00:16:26;99508.36;;;6.13;70.57
71996;BME280;59862;47.732;7.346;2024-01-30T00:18:54;99509.17;;;6.14;70.50
71996;BME280;59862;47.732;7.346;2024-01-30T00:21:21;99506.31;;;6.19;70.36
71996;BME280;59862;47.732;7.346;2024-01-30T00:23:49;99509.67;;;6.13;70.57
71996;BME280;59862;47.732;7.346;2024-01-30T00:26:16;99510.25;;;6.05;70.85
71996;BME280;59862;47.732;7.346;2024-01-30T00:28:44;99509.67;;;6.13;70.63
71996;BME280;59862;47.732;7.346;2024-01-30T00:31:11;99506.72;;;6.12;70.52
71996;BME280;59862;47.732;7.346;2024-01-30T00:33:39;99512.95;;;5.96;71.02
71996;BME280;59862;47.732;7.346;2024-01-30T00:36:09;99503.45;;;5.95;70.97
71996;BME280;59862;47.732;7.346;2024-01-30T00:38:37;99508.27;;;6.07;70.51
71996;BME280;59862;47.732;7.346;2024-01-30T00:41:05;99513.52;;;6.07;70.41
71996;BME280;59862;47.732;7.346;2024-01-30T00:43:32;99503.59;;;5.98;70.71
71996;BME280;59862;47.732;7.346;2024-01-30T00:45:59;99516.00;;;6.04;70.34
71996;BME280;59862;47.732;7.346;2024-01-30T00:48:27;99508.70;;;6.10;70.26
71996;BME280;59862;47.732;7.346;2024-01-30T00:50:54;99508.44;;;6.05;70.39
71996;BME280;59862;47.732;7.346;2024-01-30T00:53:22;99502.52;;;6.07;70.27
71996;BME280;59862;47.732;7.346;2024-01-30T00:55:49;99505.23;;;5.99;70.57
71996;BME280;59862;47.732;7.346;2024-01-30T00:58:16;99514.19;;;6.05;70.40
71996;BME280;59862;47.732;7.346;2024-01-30T01:00:46;99510.16;;;5.98;70.74
71996;BME280;59862;47.732;7.346;2024-01-30T01:03:13;99510.08;;;6.06;70.37
71996;BME280;59862;47.732;7.346;2024-01-30T01:05:41;99506.63;;;5.91;70.97
71996;BME280;59862;47.732;7.346;2024-01-30T01:08:08;99506.72;;;5.97;70.66
71996;BME280;59862;47.732;7.346;2024-01-30T01:10:35;99503.67;;;5.86;71.10
71996;BME280;59862;47.732;7.346;2024-01-30T01:13:03;99507.62;;;5.90;70.98
71996;BME280;59862;47.732;7.346;2024-01-30T01:15:30;99511.69;;;5.70;71.55
71996;BME280;59862;47.732;7.346;2024-01-30T01:17:58;99509.24;;;5.68;71.66
71996;BME280;59862;47.732;7.346;2024-01-30T01:20:25;99516.22;;;5.76;71.55
71996;BME280;59862;47.732;7.346;2024-01-30T01:22:52;99507.45;;;5.64;72.03
71996;BME280;59862;47.732;7.346;2024-01-30T01:25:20;99505.63;;;5.69;71.78
71996;BME280;59862;47.732;7.346;2024-01-30T01:27:48;99506.77;;;5.71;71.68
71996;BME280;59862;47.732;7.346;2024-01-30T01:30:18;99502.77;;;5.56;72.33
71996;BME280;59862;47.732;7.346;2024-01-30T01:32:48;99497.36;;;5.57;72.25
71996;BME280;59862;47.732;7.346;2024-01-30T01:35:17;99502.44;;;5.59;72.27
71996;BME280;59862;47.732;7.346;2024-01-30T01:37:46;99499.45;;;5.43;72.74
71996;BME280;59862;47.732;7.346;2024-01-30T01:40:13;99495.52;;;5.43;72.82
71996;BME280;59862;47.732;7.346;2024-01-30T01:42:41;99503.71;;;5.44;72.62
71996;BME280;59862;47.732;7.346;2024-01-30T01:45:09;99507.16;;;5.63;71.93
71996;BME280;59862;47.732;7.346;2024-01-30T01:47:36;99500.45;;;5.61;71.86
71996;BME280;59862;47.732;7.346;2024-01-30T01:50:04;99499.88;;;5.51;72.13
71996;BME280;59862;47.732;7.346;2024-01-30T01:52:32;99498.65;;;5.61;71.80
71996;BME280;59862;47.732;7.346;2024-01-30T01:54:59;99501.41;;;5.45;72.15
71996;BME280;59862;47.732;7.346;2024-01-30T01:57:27;99503.47;;;5.31;72.61
71996;BME280;59862;47.732;7.346;2024-01-30T01:59:54;99497.83;;;5.38;72.36
71996;BME280;59862;47.732;7.346;2024-01-30T02:02:23;99500.64;;;5.55;71.56
71996;BME280;59862;47.732;7.346;2024-01-30T02:04:52;99497.10;;;5.48;71.74
71996;BME280;59862;47.732;7.346;2024-01-30T02:07:19;99507.41;;;5.54;71.51
71996;BME280;59862;47.732;7.346;2024-01-30T02:09:47;99498.82;;;5.37;72.01
71996;BME280;59862;47.732;7.346;2024-01-30T02:12:15;99497.81;;;5.42;71.60
71996;BME280;59862;47.732;7.346;2024-01-30T02:14:46;99503.02;;;5.46;71.65
71996;BME280;59862;47.732;7.346;2024-01-30T02:17:15;99503.83;;;5.47;71.39
71996;BME280;59862;47.732;7.346;2024-01-30T02:19:43;99498.89;;;5.52;71.10
71996;BME280;59862;47.732;7.346;2024-01-30T02:22:11;99499.73;;;5.48;71.32
71996;BME280;59862;47.732;7.346;2024-01-30T02:24:39;99497.42;;;5.49;71.18
71996;BME280;59862;47.732;7.346;2024-01-30T02:27:06;99497.27;;;5.47;71.42
71996;BME280;59862;47.732;7.346;2024-01-30T02:29:33;99497.64;;;5.44;71.36
71996;BME280;59862;47.732;7.346;2024-01-30T02:32:01;99494.61;;;5.32;71.73
71996;BME280;59862;47.732;7.346;2024-01-30T02:34:28;99498.72;;;5.31;71.82
71996;BME280;59862;47.732;7.346;2024-01-30T02:36:55;99498.05;;;5.33;71.72
71996;BME280;59862;47.732;7.346;2024-01-30T02:39:24;99498.22;;;5.31;71.74
71996;BME280;59862;47.732;7.346;2024-01-30T02:41:51;99502.49;;;5.28;71.82
71996;BME280;59862;47.732;7.346;2024-01-30T02:44:19;99500.80;;;5.16;72.11
71996;BME280;59862;47.732;7.346;2024-01-30T02:46:47;99502.77;;;5.14;72.20
71996;BME280;59862;47.732;7.346;2024-01-30T02:49:14;99500.63;;;5.14;72.15
71996;BME280;59862;47.732;7.346;2024-01-30T02:51:41;99502.01;;;5.02;72.59
71996;BME280;59862;47.732;7.346;2024-01-30T02:54:09;99503.52;;;5.00;72.65
71996;BME280;59862;47.732;7.346;2024-01-30T02:56:36;99503.16;;;5.03;72.49
71996;BME280;59862;47.732;7.346;2024-01-30T02:59:04;99498.98;;;5.17;71.95
71996;BME280;59862;47.732;7.346;2024-01-30T03:01:31;99493.48;;;5.04;72.32
71996;BME280;59862;47.732;7.346;2024-01-30T03:03:58;99506.30;;;4.99;72.53
71996;BME280;59862;47.732;7.346;2024-01-30T03:06:26;99505.70;;;4.88;72.88
71996;BME280;59862;47.732;7.346;2024-01-30T03:08:53;99495.45;;;5.02;72.44
71996;BME280;59862;47.732;7.346;2024-01-30T03:11:21;99499.88;;;5.05;72.29
71996;BME280;59862;47.732;7.346;2024-01-30T03:13:48;99498.23;;;5.04;72.19
71996;BME280;59862;47.732;7.346;2024-01-30T03:16:15;99496.70;;;5.14;71.80
71996;BME280;59862;47.732;7.346;2024-01-30T03:18:43;99496.05;;;5.12;71.79
71996;BME280;59862;47.732;7.346;2024-01-30T03:21:10;99499.80;;;5.17;71.57
71996;BME280;59862;47.732;7.346;2024-01-30T03:23:38;99488.89;;;5.28;71.04
71996;BME280;59862;47.732;7.346;2024-01-30T03:26:07;99496.81;;;5.20;71.25
71996;BME280;59862;47.732;7.346;2024-01-30T03:28:35;99502.59;;;5.16;71.24
71996;BME280;59862;47.732;7.346;2024-01-30T03:31:03;99504.02;;;5.22;70.97
71996;BME280;59862;47.732;7.346;2024-01-30T03:33:30;99505.17;;;5.20;71.07
71996;BME280;59862;47.732;7.346;2024-01-30T03:36:02;99510.07;;;5.00;71.80
71996;BME280;59862;47.732;7.346;2024-01-30T03:38:27;99508.27;;;5.01;71.79
71996;BME280;59862;47.732;7.346;2024-01-30T03:40:56;99514.66;;;4.98;71.76
71996;BME280;59862;47.732;7.346;2024-01-30T03:43:23;99503.42;;;5.12;71.37
71996;BME280;59862;47.732;7.346;2024-01-30T03:45:51;99514.63;;;5.02;71.65
71996;BME280;59862;47.732;7.346;2024-01-30T03:48:19;99509.70;;;5.03;71.66
71996;BME280;59862;47.732;7.346;2024-01-30T03:50:47;99512.31;;;5.07;71.30
71996;BME280;59862;47.732;7.346;2024-01-30T03:53:15;99503.91;;;5.12;70.91
71996;BME280;59862;47.732;7.346;2024-01-30T03:55:42;99510.02;;;5.08;71.06
71996;BME280;59862;47.732;7.346;2024-01-30T03:58:09;99505.50;;;4.94;71.52
71996;BME280;59862;47.732;7.346;2024-01-30T04:00:37;99503.36;;;4.98;71.52
71996;BME280;59862;47.732;7.346;2024-01-30T04:03:04;99506.48;;;4.93;71.61
71996;BME280;59862;47.732;7.346;2024-01-30T04:05:32;99504.45;;;4.76;72.36
71996;BME280;59862;47.732;7.346;2024-01-30T04:08:00;99501.05;;;4.72;72.42
71996;BME280;59862;47.732;7.346;2024-01-30T04:10:28;99500.96;;;4.53;73.02
71996;BME280;59862;47.732;7.346;2024-01-30T04:12:55;99500.93;;;4.57;73.00
71996;BME280;59862;47.732;7.346;2024-01-30T04:15:22;99509.97;;;4.55;73.04
71996;BME280;59862;47.732;7.346;2024-01-30T04:17:50;99505.09;;;4.39;73.72
71996;BME280;59862;47.732;7.346;2024-01-30T04:20:17;99505.94;;;4.36;73.84
71996;BME280;59862;47.732;7.346;2024-01-30T04:22:45;99506.64;;;4.18;74.64
71996;BME280;59862;47.732;7.346;2024-01-30T04:25:14;99513.19;;;4.18;74.77
71996;BME280;59862;47.732;7.346;2024-01-30T04:27:42;99508.09;;;4.20;74.71
71996;BME280;59862;47.732;7.346;2024-01-30T04:30:10;99512.02;;;4.20;74.78
71996;BME280;59862;47.732;7.346;2024-01-30T04:32:37;99513.32;;;4.20;74.86
71996;BME280;59862;47.732;7.346;2024-01-30T04:35:05;99514.81;;;4.10;75.14
71996;BME280;59862;47.732;7.346;2024-01-30T04:37:32;99506.97;;;4.14;75.08
71996;BME280;59862;47.732;7.346;2024-01-30T04:40:00;99512.38;;;4.05;75.24
71996;BME280;59862;47.732;7.346;2024-01-30T04:42:28;99509.58;;;4.10;75.32
71996;BME280;59862;47.732;7.346;2024-01-30T04:44:55;99513.86;;;4.07;75.14
71996;BME280;59862;47.732;7.346;2024-01-30T04:47:23;99522.04;;;3.92;75.76
71996;BME280;59862;47.732;7.346;2024-01-30T04:49:52;99523.19;;;3.94;75.85
71996;BME280;59862;47.732;7.346;2024-01-30T04:52:19;99526.47;;;3.88;75.86
71996;BME280;59862;47.732;7.346;2024-01-30T04:54:46;99524.50;;;3.98;75.34
71996;BME280;59862;47.732;7.346;2024-01-30T04:57:14;99525.81;;;3.86;75.77
71996;BME280;59862;47.732;7.346;2024-01-30T04:59:41;99531.36;;;3.95;75.26
71996;BME280;59862;47.732;7.346;2024-01-30T05:02:08;99530.39;;;3.96;75.25
71996;BME280;59862;47.732;7.346;2024-01-30T05:04:36;99527.94;;;3.98;75.05
71996;BME280;59862;47.732;7.346;2024-01-30T05:07:03;99528.27;;;3.87;75.46
71996;BME280;59862;47.732;7.346;2024-01-30T05:09:31;99529.40;;;3.93;75.32
71996;BME280;59862;47.732;7.346;2024-01-30T05:11:58;99517.16;;;3.85;75.70
71996;BME280;59862;47.732;7.346;2024-01-30T05:14:26;99527.13;;;3.78;76.19
71996;BME280;59862;47.732;7.346;2024-01-30T05:16:53;99521.41;;;3.86;75.85
71996;BME280;59862;47.732;7.346;2024-01-30T05:19:21;99520.59;;;3.90;75.75
71996;BME280;59862;47.732;7.346;2024-01-30T05:21:49;99526.64;;;3.90;75.69
71996;BME280;59862;47.732;7.346;2024-01-30T05:24:17;99521.41;;;3.90;75.73
71996;BME280;59862;47.732;7.346;2024-01-30T05:26:44;99526.22;;;4.34;74.13
71996;BME280;59862;47.732;7.346;2024-01-30T05:29:13;99531.23;;;4.47;73.48
71996;BME280;59862;47.732;7.346;2024-01-30T05:31:41;99531.30;;;4.35;73.85
71996;BME280;59862;47.732;7.346;2024-01-30T05:34:08;99532.44;;;4.37;73.58
71996;BME280;59862;47.732;7.346;2024-01-30T05:36:36;99530.13;;;4.46;73.40
71996;BME280;59862;47.732;7.346;2024-01-30T05:39:03;99533.50;;;4.59;72.75
71996;BME280;59862;47.732;7.346;2024-01-30T05:41:31;99532.74;;;4.46;73.20
71996;BME280;59862;47.732;7.346;2024-01-30T05:44:00;99534.64;;;4.64;72.59
71996;BME280;59862;47.732;7.346;2024-01-30T05:46:27;99527.57;;;4.69;72.19
71996;BME280;59862;47.732;7.346;2024-01-30T05:48:55;99537.55;;;4.65;72.30
71996;BME280;59862;47.732;7.346;2024-01-30T05:51:22;99540.38;;;4.60;72.45
71996;BME280;59862;47.732;7.346;2024-01-30T05:53:50;99547.31;;;4.44;73.18
71996;BME280;59862;47.732;7.346;2024-01-30T05:56:17;99548.09;;;4.49;72.82
71996;BME280;59862;47.732;7.346;2024-01-30T05:58:45;99555.79;;;4.50;73.02
71996;BME280;59862;47.732;7.346;2024-01-30T06:01:12;99552.37;;;4.38;73.26
71996;BME280;59862;47.732;7.346;2024-01-30T06:03:40;99553.69;;;4.46;73.02
71996;BME280;59862;47.732;7.346;2024-01-30T06:06:09;99556.12;;;4.51;72.81
71996;BME280;59862;47.732;7.346;2024-01-30T06:08:36;99564.16;;;4.42;73.34
71996;BME280;59862;47.732;7.346;2024-01-30T06:11:04;99551.99;;;4.57;72.66
71996;BME280;59862;47.732;7.346;2024-01-30T06:13:31;99551.42;;;4.35;73.42
71996;BME280;59862;47.732;7.346;2024-01-30T06:15:59;99557.15;;;4.34;73.62
71996;BME280;59862;47.732;7.346;2024-01-30T06:18:26;99562.22;;;4.32;73.65
71996;BME280;59862;47.732;7.346;2024-01-30T06:20:55;99560.86;;;4.48;72.97
71996;BME280;59862;47.732;7.346;2024-01-30T06:23:23;99554.86;;;4.35;73.23
71996;BME280;59862;47.732;7.346;2024-01-30T06:25:50;99559.44;;;4.33;73.56
71996;BME280;59862;47.732;7.346;2024-01-30T06:28:18;99559.41;;;4.37;73.30
71996;BME280;59862;47.732;7.346;2024-01-30T06:30:45;99565.45;;;4.54;72.72
71996;BME280;59862;47.732;7.346;2024-01-30T06:33:13;99565.74;;;4.63;72.42
71996;BME280;59862;47.732;7.346;2024-01-30T06:35:41;99566.07;;;4.56;72.52
71996;BME280;59862;47.732;7.346;2024-01-30T06:38:08;99564.92;;;4.59;72.47
71996;BME280;59862;47.732;7.346;2024-01-30T06:40:36;99559.30;;;4.74;71.92
71996;BME280;59862;47.732;7.346;2024-01-30T06:43:05;99568.30;;;4.75;71.78
71996;BME280;59862;47.732;7.346;2024-01-30T06:45:34;99566.37;;;4.65;72.09
71996;BME280;59862;47.732;7.346;2024-01-30T06:48:02;99566.40;;;4.57;72.54
71996;BME280;59862;47.732;7.346;2024-01-30T06:50:29;99566.72;;;4.58;72.73
71996;BME280;59862;47.732;7.346;2024-01-30T06:52:56;99569.34;;;4.58;72.63
71996;BME280;59862;47.732;7.346;2024-01-30T06:55:24;99571.80;;;4.64;72.52
71996;BME280;59862;47.732;7.346;2024-01-30T06:57:51;99572.81;;;4.50;72.91
71996;BME280;59862;47.732;7.346;2024-01-30T07:00:19;99570.05;;;4.44;73.26
71996;BME280;59862;47.732;7.346;2024-01-30T07:02:47;99570.84;;;4.53;72.92
71996;BME280;59862;47.732;7.346;2024-01-30T07:05:15;99566.72;;;4.58;72.51
71996;BME280;59862;47.732;7.346;2024-01-30T07:07:43;99574.25;;;4.57;72.63
71996;BME280;59862;47.732;7.346;2024-01-30T07:10:11;99579.98;;;4.57;72.74
71996;BME280;59862;47.732;7.346;2024-01-30T07:12:38;99577.20;;;4.58;72.64
71996;BME280;59862;47.732;7.346;2024-01-30T07:15:06;99577.86;;;4.60;72.55
71996;BME280;59862;47.732;7.346;2024-01-30T07:17:35;99585.58;;;4.54;72.83
71996;BME280;59862;47.732;7.346;2024-01-30T07:20:04;99584.27;;;4.54;72.86
71996;BME280;59862;47.732;7.346;2024-01-30T07:22:33;99585.88;;;4.63;72.46
71996;BME280;59862;47.732;7.346;2024-01-30T07:25:01;99582.57;;;4.69;72.24
71996;BME280;59862;47.732;7.346;2024-01-30T07:27:28;99583.55;;;4.68;72.34
71996;BME280;59862;47.732;7.346;2024-01-30T07:29:55;99581.06;;;4.74;72.13
71996;BME280;59862;47.732;7.346;2024-01-30T07:32:23;99586.02;;;4.65;72.43
71996;BME280;59862;47.732;7.346;2024-01-30T07:34:50;99586.36;;;4.58;72.79
71996;BME280;59862;47.732;7.346;2024-01-30T07:37:17;99591.81;;;4.44;73.53
71996;BME280;59862;47.732;7.346;2024-01-30T07:39:47;99593.23;;;4.59;73.08
71996;BME280;59862;47.732;7.346;2024-01-30T07:42:14;99601.42;;;4.64;72.87
71996;BME280;59862;47.732;7.346;2024-01-30T07:44:42;99604.54;;;4.64;72.91
71996;BME280;59862;47.732;7.346;2024-01-30T07:47:11;99607.95;;;4.72;72.61
71996;BME280;59862;47.732;7.346;2024-01-30T07:49:39;99605.98;;;4.66;72.58
71996;BME280;59862;47.732;7.346;2024-01-30T07:52:06;99614.47;;;4.76;72.30
71996;BME280;59862;47.732;7.346;2024-01-30T07:54:34;99602.19;;;4.77;71.98
71996;BME280;59862;47.732;7.346;2024-01-30T07:57:03;99617.38;;;4.89;71.64
71996;BME280;59862;47.732;7.346;2024-01-30T07:59:30;99621.45;;;4.96;71.65
71996;BME280;59862;47.732;7.346;2024-01-30T08:01:58;99614.90;;;4.92;71.61
71996;BME280;59862;47.732;7.346;2024-01-30T08:04:25;99619.16;;;4.97;71.39
71996;BME280;59862;47.732;7.346;2024-01-30T08:06:53;99613.30;;;5.22;71.22
71996;BME280;59862;47.732;7.346;2024-01-30T08:09:20;99616.05;;;5.28;70.68
71996;BME280;59862;47.732;7.346;2024-01-30T08:11:48;99610.64;;;5.30;70.51
71996;BME280;59862;47.732;7.346;2024-01-30T08:14:15;99607.68;;;5.33;70.37
71996;BME280;59862;47.732;7.346;2024-01-30T08:16:42;99604.52;;;5.38;70.18
71996;BME280;59862;47.732;7.346;2024-01-30T08:19:10;99613.20;;;5.42;70.37
71996;BME280;59862;47.732;7.346;2024-01-30T08:21:37;99602.67;;;5.46;69.64
71996;BME280;59862;47.732;7.346;2024-01-30T08:24:06;99610.09;;;5.43;70.22
71996;BME280;59862;47.732;7.346;2024-01-30T08:26:34;99610.80;;;5.59;69.74
71996;BME280;59862;47.732;7.346;2024-01-30T08:29:02;99610.02;;;5.55;69.75
71996;BME280;59862;47.732;7.346;2024-01-30T08:31:29;99608.12;;;5.68;69.82
71996;BME280;59862;47.732;7.346;2024-01-30T08:33:57;99605.31;;;5.73;69.65
71996;BME280;59862;47.732;7.346;2024-01-30T08:36:25;99601.59;;;5.86;69.21
71996;BME280;59862;47.732;7.346;2024-01-30T08:38:53;99606.16;;;5.92;69.67
71996;BME280;59862;47.732;7.346;2024-01-30T08:41:20;99604.58;;;6.06;68.73
71996;BME280;59862;47.732;7.346;2024-01-30T08:43:48;99602.86;;;6.32;68.19
71996;BME280;59862;47.732;7.346;2024-01-30T08:46:19;99603.86;;;6.31;68.45
71996;BME280;59862;47.732;7.346;2024-01-30T08:48:48;99606.70;;;6.25;68.02
71996;BME280;59862;47.732;7.346;2024-01-30T08:51:15;99597.62;;;6.47;67.12
71996;BME280;59862;47.732;7.346;2024-01-30T08:53:43;99599.58;;;6.49;67.36
71996;BME280;59862;47.732;7.346;2024-01-30T08:56:10;99598.32;;;6.45;67.05
71996;BME280;59862;47.732;7.346;2024-01-30T08:58:38;99596.71;;;6.39;67.37
71996;BME280;59862;47.732;7.346;2024-01-30T09:01:06;99607.58;;;6.55;67.04
71996;BME280;59862;47.732;7.346;2024-01-30T09:03:33;99604.80;;;6.53;66.88
71996;BME280;59862;47.732;7.346;2024-01-30T09:06:00;99616.70;;;6.45;67.30
71996;BME280;59862;47.732;7.346;2024-01-30T09:08:28;99606.75;;;6.69;66.82
71996;BME280;59862;47.732;7.346;2024-01-30T09:10:55;99604.63;;;6.69;67.20
71996;BME280;59862;47.732;7.346;2024-01-30T09:13:23;99608.55;;;6.84;66.65
71996;BME280;59862;47.732;7.346;2024-01-30T09:15:50;99611.89;;;6.82;66.50
71996;BME280;59862;47.732;7.346;2024-01-30T09:18:18;99615.27;;;6.86;66.62
71996;BME280;59862;47.732;7.346;2024-01-30T09:20:45;99610.89;;;6.83;66.60
71996;BME280;59862;47.732;7.346;2024-01-30T09:23:13;99601.38;;;6.82;66.19
71996;BME280;59862;47.732;7.346;2024-01-30T09:25:41;99602.91;;;6.91;66.20
71996;BME280;59862;47.732;7.346;2024-01-30T09:28:08;99614.39;;;7.04;66.00
71996;BME280;59862;47.732;7.346;2024-01-30T09:30:36;99603.58;;;7.39;65.32
71996;BME280;59862;47.732;7.346;2024-01-30T09:33:03;99609.61;;;7.44;65.03
71996;BME280;59862;47.732;7.346;2024-01-30T09:35:31;99605.37;;;7.64;63.74
71996;BME280;59862;47.732;7.346;2024-01-30T09:37:58;99614.40;;;7.87;63.50
71996;BME280;59862;47.732;7.346;2024-01-30T09:40:26;99612.50;;;8.02;62.87
71996;BME280;59862;47.732;7.346;2024-01-30T09:42:54;99618.88;;;8.25;62.28
71996;BME280;59862;47.732;7.346;2024-01-30T09:45:24;99620.52;;;8.26;62.12
71996;BME280;59862;47.732;7.346;2024-01-30T09:47:52;99628.50;;;8.33;61.79
71996;BME280;59862;47.732;7.346;2024-01-30T09:50:21;99622.08;;;8.42;61.83
71996;BME280;59862;47.732;7.346;2024-01-30T09:52:48;99622.93;;;8.49;61.76
71996;BME280;59862;47.732;7.346;2024-01-30T09:55:17;99618.14;;;8.59;61.56
71996;BME280;59862;47.732;7.346;2024-01-30T09:57:44;99620.75;;;8.70;60.62
71996;BME280;59862;47.732;7.346;2024-01-30T10:00:13;99622.41;;;8.77;60.39
71996;BME280;59862;47.732;7.346;2024-01-30T10:02:40;99621.23;;;9.04;60.19
71996;BME280;59862;47.732;7.346;2024-01-30T10:05:08;99619.19;;;9.23;59.25
71996;BME280;59862;47.732;7.346;2024-01-30T10:07:36;99625.63;;;9.68;58.84
71996;BME280;59862;47.732;7.346;2024-01-30T10:10:05;99623.34;;;9.82;58.86
71996;BME280;59862;47.732;7.346;2024-01-30T10:12:33;99614.05;;;10.19;57.92
71996;BME280;59862;47.732;7.346;2024-01-30T10:15:00;99614.05;;;10.19;57.92
71996;BME280;59862;47.732;7.346;2024-01-30T10:17:27;99626.09;;;10.11;58.16
71996;BME280;59862;47.732;7.346;2024-01-30T10:19:55;99618.47;;;10.12;58.05
71996;BME280;59862;47.732;7.346;2024-01-30T10:22:23;99622.03;;;10.15;58.04
71996;BME280;59862;47.732;7.346;2024-01-30T10:24:50;99622.03;;;10.15;58.04
71996;BME280;59862;47.732;7.346;2024-01-30T10:27:29;99622.98;;;10.25;57.61
71996;BME280;59862;47.732;7.346;2024-01-30T10:29:49;99629.50;;;10.35;57.12
71996;BME280;59862;47.732;7.346;2024-01-30T10:32:17;99613.02;;;10.33;58.34
71996;BME280;59862;47.732;7.346;2024-01-30T10:34:45;99623.06;;;10.47;57.47
71996;BME280;59862;47.732;7.346;2024-01-30T10:37:13;99613.97;;;10.78;57.14
71996;BME280;59862;47.732;7.346;2024-01-30T10:39:45;99617.38;;;10.99;56.11
71996;BME280;59862;47.732;7.346;2024-01-30T10:42:17;99607.05;;;11.13;55.97
71996;BME280;59862;47.732;7.346;2024-01-30T10:47:27;99604.23;;;10.72;56.68
71996;BME280;59862;47.732;7.346;2024-01-30T10:49:55;99612.55;;;10.82;56.64
71996;BME280;59862;47.732;7.346;2024-01-30T10:52:25;99604.02;;;11.03;56.10
71996;BME280;59862;47.732;7.346;2024-01-30T10:54:55;99598.42;;;11.08;55.49
71996;BME280;59862;47.732;7.346;2024-01-30T10:57:26;99600.80;;;11.01;55.87
71996;BME280;59862;47.732;7.346;2024-01-30T11:00:02;99597.61;;;11.08;55.97
71996;BME280;59862;47.732;7.346;2024-01-30T11:02:25;99605.49;;;11.43;55.15
71996;BME280;59862;47.732;7.346;2024-01-30T11:04:58;99602.07;;;11.36;55.02
71996;BME280;59862;47.732;7.346;2024-01-30T11:07:28;99602.07;;;11.36;55.62
71996;BME280;59862;47.732;7.346;2024-01-30T11:10:01;99598.80;;;11.79;55.37
71996;BME280;59862;47.732;7.346;2024-01-30T11:12:38;99593.78;;;11.95;54.48
71996;BME280;59862;47.732;7.346;2024-01-30T11:15:14;99596.22;;;12.22;54.26
71996;BME280;59862;47.732;7.346;2024-01-30T11:17:43;99592.94;;;12.88;52.62
71996;BME280;59862;47.732;7.346;2024-01-30T11:20:29;99583.13;;;13.25;51.77
71996;BME280;59862;47.732;7.346;2024-01-30T11:23:02;99588.73;;;12.71;52.89
71996;BME280;59862;47.732;7.346;2024-01-30T11:25:32;99590.23;;;12.42;53.76
71996;BME280;59862;47.732;7.346;2024-01-30T11:27:59;99585.59;;;12.13;54.89
71996;BME280;59862;47.732;7.346;2024-01-30T11:30:31;99593.38;;;11.83;54.69
71996;BME280;59862;47.732;7.346;2024-01-30T11:33:07;99591.04;;;11.39;56.20
71996;BME280;59862;47.732;7.346;2024-01-30T11:35:39;99584.31;;;11.43;56.23
71996;BME280;59862;47.732;7.346;2024-01-30T11:38:08;99582.84;;;11.47;56.95
71996;BME280;59862;47.732;7.346;2024-01-30T11:40:38;99588.33;;;11.52;57.04
71996;BME280;59862;47.732;7.346;2024-01-30T11:43:07;99584.70;;;11.47;56.89
71996;BME280;59862;47.732;7.346;2024-01-30T11:45:36;99583.20;;;11.57;56.71
71996;BME280;59862;47.732;7.346;2024-01-30T11:48:04;99581.66;;;11.59;56.56
71996;BME280;59862;47.732;7.346;2024-01-30T11:50:34;99582.94;;;11.66;56.59
71996;BME280;59862;47.732;7.346;2024-01-30T11:53:02;99586.86;;;11.41;56.61
71996;BME280;59862;47.732;7.346;2024-01-30T11:55:30;99576.72;;;11.53;56.65
71996;BME280;59862;47.732;7.346;2024-01-30T11:57:59;99576.58;;;11.57;56.48
71996;BME280;59862;47.732;7.346;2024-01-30T12:00:27;99527.63;;;11.19;56.57
71996;BME280;59862;47.732;7.346;2024-01-30T12:02:56;99570.30;;;11.52;56.84
71996;BME280;59862;47.732;7.346;2024-01-30T12:05:24;99571.47;;;11.62;56.20
71996;BME280;59862;47.732;7.346;2024-01-30T12:07:52;99568.52;;;11.61;56.52
71996;BME280;59862;47.732;7.346;2024-01-30T12:10:20;99564.70;;;11.67;56.22
71996;BME280;59862;47.732;7.346;2024-01-30T12:12:49;99564.48;;;11.68;56.31
71996;BME280;59862;47.732;7.346;2024-01-30T12:15:19;99560.52;;;11.68;56.61
71996;BME280;59862;47.732;7.346;2024-01-30T12:17:47;99559.03;;;11.63;56.72
71996;BME280;59862;47.732;7.346;2024-01-30T12:20:19;99563.16;;;11.68;56.30
71996;BME280;59862;47.732;7.346;2024-01-30T12:22:48;99551.61;;;11.78;55.98
71996;BME280;59862;47.732;7.346;2024-01-30T12:25:21;99558.81;;;11.96;54.89
71996;BME280;59862;47.732;7.346;2024-01-30T12:27:50;99556.11;;;12.03;54.62
71996;BME280;59862;47.732;7.346;2024-01-30T12:30:19;99550.56;;;11.95;54.57
71996;BME280;59862;47.732;7.346;2024-01-30T12:32:49;99551.07;;;12.10;54.76
71996;BME280;59862;47.732;7.346;2024-01-30T12:35:19;99547.64;;;12.28;54.72
71996;BME280;59862;47.732;7.346;2024-01-30T12:37:49;99552.02;;;12.68;53.62
71996;BME280;59862;47.732;7.346;2024-01-30T12:40:17;99546.58;;;12.72;52.86
71996;BME280;59862;47.732;7.346;2024-01-30T12:42:47;99549.66;;;12.87;52.69
71996;BME280;59862;47.732;7.346;2024-01-30T12:45:17;99548.84;;;12.59;53.16
71996;BME280;59862;47.732;7.346;2024-01-30T12:47:49;99544.43;;;12.53;53.58
71996;BME280;59862;47.732;7.346;2024-01-30T12:50:16;99546.66;;;12.65;53.86
71996;BME280;59862;47.732;7.346;2024-01-30T12:52:45;99547.52;;;12.59;53.68
71996;BME280;59862;47.732;7.346;2024-01-30T12:55:12;99543.92;;;12.72;54.33
71996;BME280;59862;47.732;7.346;2024-01-30T12:57:41;99541.77;;;12.90;53.92
71996;BME280;59862;47.732;7.346;2024-01-30T13:00:09;99548.11;;;12.52;54.65
71996;BME280;59862;47.732;7.346;2024-01-30T13:02:37;99539.85;;;12.51;54.13
71996;BME280;59862;47.732;7.346;2024-01-30T13:05:05;99537.80;;;12.62;54.41
71996;BME280;59862;47.732;7.346;2024-01-30T13:07:34;99534.24;;;12.41;54.38
71996;BME280;59862;47.732;7.346;2024-01-30T13:10:02;99535.56;;;12.41;53.68
71996;BME280;59862;47.732;7.346;2024-01-30T13:12:31;99531.35;;;12.24;53.80
71996;BME280;59862;47.732;7.346;2024-01-30T13:15:02;99522.38;;;12.34;53.38